メインページ
METAR-TAF:

METAR-TAF

空港 :

グラン・カナリア島, スペイン

グラン・カナリア空港

緯度: 27-56N, 経度: 015-23W, 海抜: 23m

現時点の気象観測

当レポートは30分前の05:30(UTC)に作成
北/北東の風 21kt
気温 23°C
湿度 78%
気圧 1014 hPa
視程10km以上
高度2000ftの雲はほとんどない

METAR: GCLP 200530Z 02021KT 9999 FEW020 23/19 Q1014 NOSIG

時間: 07:00 (06:00 UTC)

予報

当レポートは4時間0分前の02:00(UTC)に作成
予報は20日の 03時(UTC)から 21日の 03時(UTC)まで有効
の風 25kt
視程10km以上
高度2000ftの雲はほとんどない

TAF: GCLP 200200Z 2003/2103 01025KT 9999 FEW020 TX31/2013Z TN23/2006Z

4,000以上の空港の気象観測と天気予報(METAR報とTAF報)

利用可能な観測所は地図上に黄色い丸と赤い丸で示す。

丸の上にカーソルを重ねると観測所名を参照できる。

次にクリックすると気象観測と天気予報を参照できる。

マップの切り替え:黒色「×」印の緑ボタンをクリックして拡大、「-」印の緑ボタンをクリックして縮小、緑色の三角印をクリックして隣りの地図に切り替え


METAR-TAF: